METAR AND TAF INFORMATION
METAR FOR CYNM
ADDS - METARS form results

(0445 UTC 18 January 2020)
Data provider http://aviationweather.gov/metar/data/
 
METAR text: CYNM 180400Z AUTO 19003KT 9SM CLR M28/M31 A3059 RMK SLP399
Conditions at: CYNM (MATAGAMI AIRPORT, QC, CA) observed 0400 UTC 18 January 2020
Temperature: -28.0°C (-18°F)
Dewpoint: -31.0°C (-24°F) [RH = 75%]
Pressure (altimeter): 30.59 inches Hg (1036.0 mb)
[Sea-level pressure: 1039.9 mb]
Winds: from the S (190 degrees) at 3 MPH (3 knots; 1.5 m/s)
Visibility: 9 miles (14 km)
Ceiling: at least 12,000 feet AGL
Clouds: sky clear below 12,000 feet AGL
Weather: no significant weather observed at this time

 AIRPORT MAP

 RUNWAY INFORMATION
Runway 15 Runway length 5000 ft Runway width 100 ft
Runway elevation 908 ft Runway displaced threshold 0 ft Runway heading 134
Runway 33 Runway length 5000 ft Runway width 100 ft
Runway elevation 918 ft Runway displaced threshold 0 ft Runway heading 314

 AIRPORT FREQUENCIES
Type AWOS Name AWOS Frequency 127.45 MHZ
Type RCO Name QUEBEC RDO Frequency 123.55 MHZ
Type UNIC Name ATF/UNICOM Frequency 122.8 MHZ

 AIRPORT NEAR NAVIGATION AIDS
Type NDB Name Matagami Frequency 278 KHZ



Powered by Virtual Airlines Manager [v2.6.2]